Messwerte Emmen

Temperatur

Temperatur
°C
1529380800 6.00 6.00 13
1529384400 7.00 7.00 14
1529388000 8.00 8.00 17
1529391600 9.00 9.00
1529395200 10.00 10.00 20
1529398800 11.00 11.00 21
1529402400 12.00 12.00 22
1529406000 13.00 13.00 24
1529409600 14.00 14.00 24
1529413200 15.00 15.00 25
1529416800 16.00 16.00 26
1529420400 17.00 17.00 26
1529424000 18.00 18.00 26
1529427600 19.00 19.00
1529431200 20.00 20.00 26
1529434800 21.00 21.00 25
1529438400 22.00 22.00 22
1529442000 23.00 23.00 20
1529445600 0.00 0.00 18
1529449200 1.00 1.00 16
1529452800 2.00 2.00 16
1529456400 3.00 3.00 15
1529460000 4.00 4.00 14
1529463600 5.00 5.00 14

Aktuellste Messwerte

Wettercharakter
Wetter: recht sonnig
Temperatur
13 °C
Feuchtigkeit
94 %
Wind
0 km/h, -
Luftdruck
1023 hPa
Messzeit: 20. Juni 2018, 6.00Datenquelle: METAR

Weitere Messstationen in der Nähe

Messstation Temperatur Entfernung
Buchrain 16.2 °C 3 km
Luzern-Stadt 20.0 °C 7 km
Luzern 17.0 °C 8 km
Kriens - 8 km
Sempach 14.8 °C 8 km
Mosen 14.9 °C 15 km
Pilatus 13.2 °C 14 km

Wind

Windrichtung Böen Mittelwind
° km/h km/h
1529380800 6.00 5.00 - 6.00 0
1529384400 7.00 6.00 - 7.00 5
1529388000 8.00 7.00 - 8.00 5
1529391600 9.00 8.00 - 9.00
1529395200 10.00 9.00 - 10.00 5
1529398800 11.00 10.00 - 11.00 5
1529402400 12.00 11.00 - 12.00 5
1529406000 13.00 12.00 - 13.00 5
1529409600 14.00 13.00 - 14.00 5
1529413200 15.00 14.00 - 15.00 30° 10
1529416800 16.00 15.00 - 16.00 40° 10
1529420400 17.00 16.00 - 17.00 30° 10
1529424000 18.00 17.00 - 18.00 10° 10
1529427600 19.00 18.00 - 19.00
1529431200 20.00 19.00 - 20.00 30° 15
1529434800 21.00 20.00 - 21.00 10° 5
1529438400 22.00 21.00 - 22.00 0
1529442000 23.00 22.00 - 23.00 0
1529445600 0.00 23.00 - 0.00 0
1529449200 1.00 0.00 - 1.00 0
1529452800 2.00 1.00 - 2.00 0
1529456400 3.00 2.00 - 3.00 0
1529460000 4.00 3.00 - 4.00 5
1529463600 5.00 4.00 - 5.00 0

Ihre Wetterstation

Fehlt Ihre Wetterstation auf unserem Portal?

Schreiben Sie an network@meteonews.ch

Klima

Wann ist es am wärmsten? Wann regnet es am wenigsten? Unsere Klimadaten geben Auskunft.